createdAt,value
2019-05-13T06:00:26.849Z,64.12
2019-05-13T06:01:26.830Z,64.22
2019-05-13T06:02:28.566Z,64.22
2019-05-13T06:03:26.768Z,65.12
2019-05-13T06:04:26.788Z,65.14
2019-05-13T06:05:26.755Z,65.01
2019-05-13T06:06:26.764Z,64.19
2019-05-13T06:07:26.737Z,64.60
2019-05-13T06:08:26.735Z,64.09
2019-05-13T06:09:26.707Z,62.96
2019-05-13T06:10:26.701Z,62.93
2019-05-13T06:11:26.717Z,63.75
2019-05-13T06:12:26.721Z,62.93
2019-05-13T06:13:26.661Z,63.44
2019-05-13T06:14:26.684Z,64.16
2019-05-13T06:15:26.640Z,62.11
2019-05-13T06:16:26.645Z,61.36
2019-05-13T06:17:26.673Z,61.49
2019-05-13T06:18:26.632Z,61.18
2019-05-13T06:19:26.605Z,61.36
2019-05-13T06:20:26.588Z,60.54
2019-05-13T06:21:26.595Z,61.57
2019-05-13T06:22:26.595Z,61.85
2019-05-13T06:23:26.580Z,61.33
2019-05-13T06:24:26.992Z,61.44
2019-05-13T06:25:26.587Z,60.92
2019-05-13T06:26:26.545Z,60.31
2019-05-13T06:27:26.529Z,60.41
2019-05-13T06:28:26.540Z,60.31
2019-05-13T06:29:26.504Z,60.51
2019-05-13T06:30:26.501Z,61.10
2019-05-13T06:31:26.487Z,60.17
2019-05-13T06:32:26.746Z,60.28
2019-05-13T06:33:26.483Z,60.17
2019-05-13T06:34:26.445Z,61.00
2019-05-13T06:35:26.480Z,60.49
2019-05-13T06:36:26.424Z,60.28
2019-05-13T06:37:26.408Z,60.17
2019-05-13T06:38:26.436Z,60.25
2019-05-13T06:39:26.399Z,59.84
2019-05-13T06:40:26.386Z,58.72
2019-05-13T06:41:26.399Z,57.07
2019-05-13T06:42:26.400Z,56.87
2019-05-13T06:43:26.352Z,57.00
2019-05-13T06:44:26.329Z,57.07
2019-05-13T06:45:26.360Z,56.90
2019-05-13T06:46:26.312Z,58.00
2019-05-13T06:47:26.326Z,57.07
2019-05-13T06:48:26.286Z,56.56
2019-05-13T06:49:26.302Z,55.33
2019-05-13T06:50:26.277Z,55.36
2019-05-13T06:51:26.271Z,56.35
2019-05-13T06:52:26.353Z,56.56
2019-05-13T06:53:26.243Z,56.28
2019-05-13T06:54:26.244Z,55.33
2019-05-13T06:55:26.254Z,54.51
2019-05-13T06:56:26.202Z,53.31
2019-05-13T06:57:26.182Z,53.69
2019-05-13T06:58:26.174Z,53.08
2019-05-13T06:59:26.201Z,54.21
2019-05-13T07:00:26.209Z,53.90
2019-05-13T07:01:26.150Z,55.33
2019-05-13T07:02:26.134Z,55.94
2019-05-13T07:03:26.122Z,55.64
2019-05-13T07:04:26.118Z,53.80
2019-05-13T07:05:26.145Z,55.30
2019-05-13T07:06:27.462Z,54.69
2019-05-13T07:07:26.077Z,54.90
2019-05-13T07:08:26.075Z,55.72
2019-05-13T07:09:26.054Z,55.51
2019-05-13T07:10:26.078Z,55.21
2019-05-13T07:11:26.094Z,55.30
2019-05-13T07:12:26.017Z,55.41
2019-05-13T07:13:26.069Z,55.10
2019-05-13T07:14:26.015Z,54.49
2019-05-13T07:15:26.023Z,53.87
2019-05-13T07:16:25.995Z,53.77
2019-05-13T07:17:25.989Z,53.77
2019-05-13T07:18:25.988Z,53.87
2019-05-13T07:19:25.946Z,55.21
2019-05-13T07:20:25.963Z,54.25
2019-05-13T07:21:25.919Z,53.13
2019-05-13T07:22:25.921Z,53.75
2019-05-13T07:23:25.899Z,53.67
2019-05-13T07:24:25.888Z,53.67
2019-05-13T07:25:25.910Z,55.41
2019-05-13T07:26:25.869Z,54.59
2019-05-13T07:27:25.870Z,53.56
2019-05-13T07:28:25.845Z,53.56
2019-05-13T07:29:25.833Z,53.87
2019-05-13T07:30:25.862Z,55.10
2019-05-13T07:31:25.852Z,55.51
2019-05-13T07:32:25.801Z,55.30
2019-05-13T07:33:25.790Z,55.38
2019-05-13T07:34:25.781Z,54.77
2019-05-13T07:35:25.810Z,55.28
2019-05-13T07:36:25.803Z,55.38
2019-05-13T07:37:25.764Z,54.25
2019-05-13T07:38:25.733Z,53.23
2019-05-13T07:39:25.721Z,53.44
2019-05-13T07:40:25.784Z,53.31
2019-05-13T07:41:38.291Z,53.31
2019-05-13T07:42:26.686Z,53.23
2019-05-13T07:43:25.683Z,52.92
2019-05-13T07:44:25.728Z,53.23
2019-05-13T07:45:25.703Z,53.21
2019-05-13T07:46:25.672Z,53.11
2019-05-13T07:47:25.635Z,54.97
2019-05-13T07:48:27.759Z,53.72
2019-05-13T07:49:25.641Z,53.52
2019-05-13T07:50:25.627Z,53.21
2019-05-13T07:51:25.599Z,53.11
2019-05-13T07:52:25.592Z,53.41
2019-05-13T07:53:25.577Z,53.19
2019-05-13T07:54:25.613Z,53.39
2019-05-13T07:55:25.565Z,53.19
2019-05-13T07:56:25.547Z,53.19
2019-05-13T07:57:25.526Z,52.98
2019-05-13T07:58:25.539Z,52.26
2019-05-13T07:59:25.544Z,52.24
2019-05-13T08:00:25.497Z,52.14
2019-05-13T08:01:25.511Z,51.62
2019-05-13T08:02:25.506Z,51.42
2019-05-13T08:03:25.656Z,51.32
2019-05-13T08:04:26.692Z,51.12
2019-05-13T08:05:25.443Z,50.89
2019-05-13T08:06:25.434Z,50.71
2019-05-13T08:07:25.477Z,50.89
2019-05-13T08:08:25.410Z,50.68
2019-05-13T08:09:25.439Z,51.19
2019-05-13T08:10:25.391Z,51.29
2019-05-13T08:11:25.384Z,50.89
2019-05-13T08:12:25.407Z,51.29
2019-05-13T08:13:25.353Z,50.35
2019-05-13T08:14:25.387Z,49.63
2019-05-13T08:15:25.356Z,50.15
2019-05-13T08:16:25.350Z,50.25
2019-05-13T08:17:25.323Z,49.43
2019-05-13T08:18:25.331Z,49.22
2019-05-13T08:19:25.293Z,50.25
2019-05-13T08:20:25.278Z,49.95
2019-05-13T08:21:25.278Z,49.63
2019-05-13T08:22:25.272Z,49.43
2019-05-13T08:23:25.290Z,50.25
2019-05-13T08:24:25.236Z,49.63
2019-05-13T08:25:25.272Z,50.56
2019-05-13T08:26:25.216Z,50.35
2019-05-13T08:27:30.436Z,49.63
2019-05-13T08:28:26.193Z,50.25
2019-05-13T08:29:25.214Z,50.35
2019-05-13T08:30:25.170Z,50.25
2019-05-13T08:31:25.166Z,50.86
2019-05-13T08:32:25.196Z,51.17
2019-05-13T08:33:25.150Z,51.04
2019-05-13T08:34:25.136Z,50.43
2019-05-13T08:35:25.183Z,50.74
2019-05-13T08:36:25.131Z,51.04
2019-05-13T08:37:25.098Z,49.84
2019-05-13T08:38:25.086Z,50.86
2019-05-13T08:39:26.964Z,50.76
2019-05-13T08:40:26.087Z,49.95
2019-05-13T08:41:25.197Z,50.37
2019-05-13T08:42:25.320Z,50.76
2019-05-13T08:43:25.041Z,51.48
2019-05-13T08:44:25.035Z,50.35
2019-05-13T08:45:25.027Z,49.63
2019-05-13T08:46:25.040Z,49.63
2019-05-13T08:47:24.993Z,50.02
2019-05-13T08:48:33.586Z,49.63
2019-05-13T08:49:25.011Z,49.13
2019-05-13T08:50:24.985Z,49.92
2019-05-13T08:51:24.971Z,50.74
2019-05-13T08:52:24.967Z,49.51
2019-05-13T08:53:24.952Z,49.30
2019-05-13T08:54:24.943Z,49.51
2019-05-13T08:55:24.957Z,49.10
2019-05-13T08:56:24.902Z,49.41
2019-05-13T08:57:24.884Z,50.23
2019-05-13T08:58:24.924Z,48.77
2019-05-13T08:59:24.874Z,47.55
2019-05-13T09:00:24.860Z,47.14
2019-05-13T09:01:24.842Z,47.63
2019-05-13T09:02:24.829Z,47.22
2019-05-13T09:03:24.863Z,48.24
2019-05-13T09:04:24.852Z,47.42
2019-05-13T09:05:24.799Z,47.24
2019-05-13T09:06:24.800Z,47.53
2019-05-13T09:07:24.772Z,47.42
2019-05-13T09:08:24.824Z,46.92
2019-05-13T09:09:24.826Z,48.16
2019-05-13T09:10:24.811Z,48.85
2019-05-13T09:11:24.844Z,48.03
2019-05-13T09:13:25.749Z,47.81
2019-05-13T09:14:24.706Z,48.63
2019-05-13T09:15:24.719Z,47.81
2019-05-13T09:16:24.866Z,47.79
2019-05-13T09:17:24.673Z,47.79
2019-05-13T09:18:24.658Z,47.49
2019-05-13T09:19:24.667Z,47.69
2019-05-13T09:20:24.691Z,47.58
2019-05-13T09:21:24.626Z,46.97
2019-05-13T09:22:24.646Z,47.46
2019-05-13T09:23:24.602Z,46.85
2019-05-13T09:24:33.019Z,47.16
2019-05-13T09:25:25.619Z,46.75
2019-05-13T09:26:24.584Z,46.14
2019-05-13T09:27:24.566Z,45.63
2019-05-13T09:28:24.549Z,46.14
2019-05-13T09:29:25.079Z,45.83
2019-05-13T09:30:27.228Z,45.73
2019-05-13T09:31:24.530Z,45.73
2019-05-13T09:32:24.509Z,46.14
2019-05-13T09:33:24.496Z,46.03
2019-05-13T09:34:24.555Z,46.34
2019-05-13T09:35:24.477Z,46.11
2019-05-13T09:36:24.473Z,45.91
2019-05-13T09:37:24.605Z,46.01
2019-05-13T09:38:24.531Z,45.81
2019-05-13T09:39:24.437Z,46.42
2019-05-13T09:40:24.438Z,45.50
2019-05-13T09:41:24.421Z,44.28
2019-05-13T09:42:24.418Z,44.49
2019-05-13T09:43:24.431Z,44.38
2019-05-13T09:44:24.398Z,44.79
2019-05-13T09:45:24.391Z,44.49
2019-05-13T09:46:24.359Z,44.26
2019-05-13T09:47:28.199Z,43.87
2019-05-13T09:48:24.367Z,44.57
2019-05-13T09:49:24.333Z,44.26
2019-05-13T09:50:29.410Z,45.38
2019-05-13T09:51:25.347Z,45.99
2019-05-13T09:52:24.322Z,44.26
2019-05-13T09:53:24.309Z,44.16
2019-05-13T09:54:24.290Z,43.75
2019-05-13T09:55:28.999Z,43.43
2019-05-13T09:56:25.305Z,44.95
2019-05-13T09:57:24.238Z,43.75
2019-05-13T09:58:24.226Z,43.63
2019-05-13T09:59:24.220Z,43.23
2019-05-13T10:00:24.225Z,43.23
2019-05-13T10:01:24.228Z,44.34
2019-05-13T10:02:24.183Z,41.60
2019-05-13T10:03:29.110Z,41.60
2019-05-13T10:04:25.180Z,41.17
2019-05-13T10:05:24.203Z,41.17
2019-05-13T10:06:24.141Z,41.09
2019-05-13T10:07:24.134Z,41.68
2019-05-13T10:08:24.172Z,41.27
2019-05-13T10:09:24.111Z,40.16
2019-05-13T10:10:24.100Z,40.36
2019-05-13T10:11:24.088Z,40.23
2019-05-13T10:12:24.773Z,39.22
2019-05-13T10:13:24.095Z,39.32
2019-05-13T10:14:24.087Z,37.49
2019-05-13T10:15:26.010Z,38.09
2019-05-13T10:16:24.034Z,37.88
2019-05-13T10:17:24.027Z,38.79
2019-05-13T10:18:24.051Z,38.09
2019-05-13T10:19:24.009Z,38.18
2019-05-13T10:20:24.026Z,38.49
2019-05-13T10:21:23.981Z,38.78
2019-05-13T10:22:23.980Z,39.71
2019-05-13T10:23:23.974Z,36.65
2019-05-13T10:24:23.986Z,35.53
2019-05-13T10:25:23.961Z,35.22
2019-05-13T10:26:25.449Z,33.70
2019-05-13T10:27:23.953Z,32.79
2019-05-13T10:28:23.906Z,34.11
2019-05-13T10:29:23.892Z,34.00
2019-05-13T10:30:23.889Z,32.38
2019-05-13T10:31:23.902Z,33.09
2019-05-13T10:32:23.877Z,33.40
2019-05-13T10:33:23.851Z,33.70
2019-05-13T10:34:23.864Z,32.18
2019-05-13T10:35:31.738Z,32.89
2019-05-13T10:36:23.842Z,33.91
2019-05-13T10:37:23.863Z,34.00
2019-05-13T10:38:27.752Z,32.87
2019-05-13T10:39:23.785Z,32.57
2019-05-13T10:40:23.788Z,32.37
2019-05-13T10:41:23.785Z,32.67
2019-05-13T10:42:23.804Z,31.45
2019-05-13T10:43:30.991Z,31.76
2019-05-13T10:44:24.733Z,32.26
2019-05-13T10:45:23.730Z,32.98
2019-05-13T10:46:23.708Z,31.86
2019-05-13T10:47:23.791Z,31.76
2019-05-13T10:48:23.792Z,32.26
2019-05-13T10:49:23.739Z,31.05
2019-05-13T10:50:27.604Z,31.25
2019-05-13T10:51:23.778Z,31.15
2019-05-13T10:52:23.690Z,32.45
2019-05-13T10:53:23.885Z,31.34
2019-05-13T10:54:23.863Z,31.64
2019-05-13T10:55:23.641Z,31.73
2019-05-13T10:56:23.612Z,31.03
2019-05-13T10:57:23.623Z,31.22
2019-05-13T10:58:23.689Z,29.70
2019-05-13T10:59:23.592Z,30.00
2019-05-13T11:00:23.565Z,30.62
2019-05-13T11:01:23.550Z,28.99
2019-05-13T11:02:23.594Z,29.30
2019-05-13T11:03:23.536Z,29.82
2019-05-13T11:04:23.515Z,30.41
2019-05-13T11:05:23.510Z,27.98
2019-05-13T11:06:23.525Z,28.18
2019-05-13T11:07:23.521Z,27.57
2019-05-13T11:08:23.475Z,28.27
2019-05-13T11:09:25.032Z,27.86
2019-05-13T11:10:23.491Z,27.95
2019-05-13T11:11:23.464Z,28.66
2019-05-13T11:12:28.010Z,28.96
2019-05-13T11:13:24.420Z,28.77
2019-05-13T11:14:25.039Z,27.55
2019-05-13T11:15:23.428Z,27.36
2019-05-13T11:16:23.390Z,28.06
2019-05-13T11:17:30.970Z,28.25
2019-05-13T11:18:24.667Z,27.25
2019-05-13T11:19:23.532Z,28.16
2019-05-13T11:20:23.397Z,27.75
2019-05-13T11:21:23.335Z,27.65
2019-05-13T11:22:23.320Z,28.14
2019-05-13T11:23:23.613Z,27.73
2019-05-13T11:24:23.347Z,26.33
2019-05-13T11:25:23.298Z,26.73
2019-05-13T11:26:23.330Z,26.13
2019-05-13T11:27:23.604Z,26.23
2019-05-13T11:28:23.256Z,27.55
2019-05-13T11:29:23.570Z,27.75
2019-05-13T11:30:23.247Z,26.64
2019-05-13T11:31:23.228Z,26.33
2019-05-13T11:32:23.214Z,27.75
2019-05-13T11:33:23.218Z,28.36
2019-05-13T11:34:23.223Z,28.86
2019-05-13T11:35:23.206Z,27.75
2019-05-13T11:36:23.844Z,26.84
2019-05-13T11:37:23.465Z,27.95
2019-05-13T11:38:23.204Z,26.53
2019-05-13T11:39:23.134Z,26.84
2019-05-13T11:40:23.194Z,26.03
2019-05-13T11:41:23.189Z,25.92
2019-05-13T11:42:23.128Z,26.03
2019-05-13T11:43:27.656Z,25.52
2019-05-13T11:44:24.099Z,26.23
2019-05-13T11:45:23.110Z,25.93
2019-05-13T11:46:24.000Z,26.62
2019-05-13T11:47:23.079Z,26.42
2019-05-13T11:48:23.659Z,25.12
2019-05-13T11:49:23.088Z,25.21
2019-05-13T11:50:23.019Z,25.52
2019-05-13T11:51:24.103Z,26.03
2019-05-13T11:52:23.088Z,26.33
2019-05-13T11:53:37.996Z,26.42
2019-05-13T11:54:24.090Z,25.92
2019-05-13T11:55:23.178Z,26.13
2019-05-13T11:56:23.213Z,26.92
2019-05-13T11:57:22.978Z,26.12
2019-05-13T11:58:23.218Z,26.92
2019-05-13T11:59:22.961Z,26.12
2019-05-13T12:00:22.909Z,24.90
2019-05-13T12:01:23.154Z,25.80
2019-05-13T12:02:23.435Z,26.52
2019-05-13T12:03:23.436Z,28.23
2019-05-13T12:04:23.933Z,26.40
2019-05-13T12:05:22.878Z,25.60
2019-05-13T12:06:23.491Z,25.60
2019-05-13T12:07:23.416Z,26.10
2019-05-13T12:08:23.104Z,25.60
2019-05-13T12:09:23.032Z,25.48
2019-05-13T12:10:22.968Z,25.80
2019-05-13T12:11:22.821Z,25.90
2019-05-13T12:12:30.150Z,26.39
2019-05-13T12:13:24.131Z,26.29
2019-05-13T12:14:42.937Z,24.77
2019-05-13T12:15:33.546Z,24.17
2019-05-13T12:16:23.746Z,23.98
2019-05-13T12:17:22.776Z,24.07
2019-05-13T12:18:23.877Z,24.77
2019-05-13T12:19:22.757Z,24.98
2019-05-13T12:20:22.701Z,25.28
2019-05-13T12:21:22.687Z,24.48
2019-05-13T12:22:23.084Z,25.99
2019-05-13T12:23:22.769Z,24.96
2019-05-13T12:24:22.970Z,24.48
2019-05-13T12:25:23.199Z,24.87
2019-05-13T12:26:23.786Z,23.14
2019-05-13T12:27:23.431Z,21.43
2019-05-13T12:28:22.688Z,21.83
2019-05-13T12:29:22.835Z,21.84
2019-05-13T12:30:22.858Z,21.84
2019-05-13T12:31:23.114Z,22.64
2019-05-13T12:32:22.705Z,24.48
2019-05-13T12:33:23.003Z,25.07
2019-05-13T12:34:23.033Z,24.17
2019-05-13T12:35:22.939Z,23.86
2019-05-13T12:36:23.647Z,23.86
2019-05-13T12:37:22.600Z,23.06
2019-05-13T12:38:22.817Z,23.46
2019-05-13T12:39:23.880Z,23.46
2019-05-13T12:40:23.163Z,21.84
2019-05-13T12:41:25.541Z,23.56
2019-05-13T12:42:22.844Z,23.97
2019-05-13T12:43:24.296Z,24.07
2019-05-13T12:44:23.022Z,24.27
2019-05-13T12:45:22.605Z,25.28
2019-05-13T12:46:24.767Z,25.19
2019-05-13T12:47:22.834Z,25.48
2019-05-13T12:48:23.071Z,25.70
2019-05-13T12:49:22.381Z,25.70
2019-05-13T12:50:23.667Z,25.99
2019-05-13T12:51:22.875Z,25.99
2019-05-13T12:52:23.113Z,25.48
2019-05-13T12:53:22.461Z,26.19
2019-05-13T12:54:23.620Z,26.39
2019-05-13T12:55:22.392Z,25.89
2019-05-13T12:56:23.474Z,25.68
2019-05-13T12:57:23.125Z,26.70
2019-05-13T12:58:23.743Z,27.10
2019-05-13T12:59:22.566Z,26.59
2019-05-13T13:00:23.657Z,27.91
2019-05-13T13:01:24.034Z,26.99
2019-05-13T13:02:22.683Z,25.47
2019-05-13T13:03:23.340Z,25.37
2019-05-13T13:04:24.016Z,25.17
2019-05-13T13:05:24.817Z,25.57
2019-05-13T13:06:32.390Z,25.98
2019-05-13T13:07:23.202Z,25.37
2019-05-13T13:08:38.589Z,25.56
2019-05-13T13:09:23.159Z,25.26
2019-05-13T13:10:23.022Z,25.07
2019-05-13T13:11:22.961Z,26.08
2019-05-13T13:12:33.227Z,27.09
2019-05-13T13:13:52.391Z,24.76
2019-05-13T13:14:23.109Z,25.27
2019-05-13T13:15:37.155Z,24.26
2019-05-13T13:16:23.134Z,25.67
2019-05-13T13:17:24.121Z,25.17
2019-05-13T13:18:22.592Z,25.47
2019-05-13T13:19:22.223Z,25.67
2019-05-13T13:20:24.219Z,25.37
2019-05-13T13:21:24.354Z,25.78
2019-05-13T13:22:25.408Z,25.37
2019-05-13T13:23:23.723Z,25.98
2019-05-13T13:24:23.675Z,24.66
2019-05-13T13:25:23.945Z,25.57
2019-05-13T13:26:22.082Z,26.28
2019-05-13T13:27:46.871Z,24.96
2019-05-13T13:28:24.218Z,25.27
2019-05-13T13:29:22.235Z,25.27
2019-05-13T13:30:21.942Z,24.16
2019-05-13T13:31:24.962Z,25.37
2019-05-13T13:32:24.688Z,26.28
2019-05-13T13:33:25.062Z,25.27
2019-05-13T13:34:26.203Z,25.88
2019-05-13T13:35:22.029Z,25.67
2019-05-13T13:36:24.147Z,25.88
2019-05-13T13:37:22.583Z,25.57
2019-05-13T13:38:25.099Z,24.96
2019-05-13T13:39:25.377Z,25.17
2019-05-13T13:40:28.941Z,24.26
2019-05-13T13:41:23.013Z,24.56
2019-05-13T13:42:21.861Z,25.17
2019-05-13T13:43:24.736Z,25.27
2019-05-13T13:44:24.656Z,25.47
2019-05-13T13:45:23.050Z,24.16
2019-05-13T13:46:33.884Z,24.05
2019-05-13T13:47:24.213Z,24.46
2019-05-13T13:48:25.726Z,25.07
2019-05-13T13:49:23.041Z,25.27
2019-05-13T13:50:24.683Z,24.65
2019-05-13T13:51:26.582Z,24.35
2019-05-13T13:52:22.916Z,24.15
2019-05-13T13:54:22.806Z,24.75
2019-05-13T13:55:25.994Z,24.96
2019-05-13T13:56:25.180Z,25.05
2019-05-13T13:57:25.642Z,24.96
2019-05-13T13:58:25.566Z,24.45
2019-05-13T13:59:24.538Z,25.36
2019-05-13T14:00:34.372Z,25.96
2019-05-13T14:01:27.155Z,24.65
2019-05-13T14:02:25.082Z,25.26
2019-05-13T14:03:21.579Z,24.45
2019-05-13T14:04:21.571Z,24.85
2019-05-13T14:05:24.723Z,24.05
2019-05-13T14:06:25.038Z,48.85
2019-05-13T14:06:59.164Z,24.75
2019-05-13T14:07:31.347Z,24.35
2019-05-13T14:07:34.469Z,24.65
2019-05-13T14:08:22.528Z,25.05
2019-05-13T14:09:22.389Z,25.04
2019-05-13T14:10:22.077Z,24.64
2019-05-13T14:11:23.096Z,25.15
2019-05-13T14:12:22.044Z,26.06
2019-05-13T14:13:21.934Z,25.55
2019-05-13T14:14:21.692Z,26.15
2019-05-13T14:15:21.661Z,26.06
2019-05-13T14:16:29.499Z,25.15
2019-05-13T14:17:22.435Z,25.04
2019-05-13T14:18:26.524Z,25.35
2019-05-13T14:19:22.454Z,25.24
2019-05-13T14:20:21.974Z,25.24
2019-05-13T14:21:21.614Z,25.45
2019-05-13T14:22:21.918Z,25.16
2019-05-13T14:23:21.541Z,25.66
2019-05-13T14:24:21.823Z,26.27
2019-05-13T14:25:22.409Z,25.36
2019-05-13T14:26:22.149Z,26.07
2019-05-13T14:27:22.400Z,27.08
2019-05-13T14:28:23.005Z,25.56
2019-05-13T14:29:36.294Z,25.56
2019-05-13T14:30:22.315Z,25.76
2019-05-13T14:31:21.590Z,25.36
2019-05-13T14:32:22.484Z,25.96
2019-05-13T14:33:21.286Z,25.56
2019-05-13T14:34:21.315Z,26.47
2019-05-13T14:35:22.029Z,25.87
2019-05-13T14:36:23.079Z,24.65
2019-05-13T14:37:22.340Z,25.36
2019-05-13T14:38:22.380Z,24.96
2019-05-13T14:39:22.178Z,24.65
2019-05-13T14:40:22.390Z,24.85
2019-05-13T14:41:21.954Z,25.46
2019-05-13T14:42:22.742Z,26.17
2019-05-13T14:43:22.948Z,25.55
2019-05-13T14:44:21.882Z,25.65
2019-05-13T14:45:23.715Z,25.26
2019-05-13T14:46:27.080Z,25.85
2019-05-13T14:47:22.103Z,26.56
2019-05-13T14:48:22.255Z,25.35
2019-05-13T14:49:22.432Z,25.35
2019-05-13T14:50:21.450Z,26.15
2019-05-13T14:51:21.821Z,26.15
2019-05-13T14:52:22.235Z,25.84
2019-05-13T14:53:21.432Z,27.26
2019-05-13T14:54:21.042Z,25.84
2019-05-13T14:55:21.552Z,27.47
2019-05-13T14:56:22.122Z,27.17
2019-05-13T14:57:21.769Z,25.94
2019-05-13T14:58:22.559Z,25.95
2019-05-13T14:59:22.074Z,25.65
2019-05-13T15:00:22.090Z,25.24
2019-05-13T15:01:22.772Z,25.95
2019-05-13T15:02:21.046Z,26.26
2019-05-13T15:03:21.701Z,26.06
2019-05-13T15:04:22.209Z,25.75
2019-05-13T15:05:28.550Z,25.55
2019-05-13T15:06:22.083Z,25.55
2019-05-13T15:07:21.635Z,25.95
2019-05-13T15:08:25.531Z,25.75
2019-05-13T15:09:22.436Z,25.65
2019-05-13T15:10:21.954Z,26.46
2019-05-13T15:11:21.947Z,25.45
2019-05-13T15:12:21.589Z,26.46
2019-05-13T15:13:20.825Z,25.45
2019-05-13T15:14:21.989Z,25.75
2019-05-13T15:15:22.395Z,25.45
2019-05-13T15:16:22.467Z,25.55
2019-05-13T15:17:21.484Z,26.15
2019-05-13T15:18:22.289Z,28.17
2019-05-13T15:19:22.330Z,26.15
2019-05-13T15:20:21.789Z,26.46
2019-05-13T15:21:21.347Z,26.15
2019-05-13T15:22:22.672Z,26.06
2019-05-13T15:23:22.177Z,26.75
2019-05-13T15:24:21.379Z,26.76
2019-05-13T15:25:22.077Z,26.45
2019-05-13T15:26:22.247Z,27.67
2019-05-13T15:27:22.295Z,28.58
2019-05-13T15:28:22.164Z,27.36
2019-05-13T15:29:22.337Z,27.56
2019-05-13T15:30:21.808Z,26.54
2019-05-13T15:31:22.117Z,26.25
2019-05-13T15:32:21.810Z,25.74
2019-05-13T15:33:21.530Z,27.05
2019-05-13T15:34:20.607Z,26.85
2019-05-13T15:35:20.645Z,26.25
2019-05-13T15:36:22.561Z,27.05
2019-05-13T15:37:28.379Z,25.75
2019-05-13T15:38:20.630Z,26.75
2019-05-13T15:39:20.696Z,26.34
2019-05-13T15:40:21.998Z,26.86
2019-05-13T15:41:20.560Z,26.85
2019-05-13T15:42:21.423Z,26.65
2019-05-13T15:43:22.380Z,25.94
2019-05-13T15:44:21.987Z,25.94
2019-05-13T15:45:21.296Z,26.14
2019-05-13T15:46:22.011Z,25.74
2019-05-13T15:47:24.059Z,25.94
2019-05-13T15:48:22.223Z,26.04
2019-05-13T15:49:22.075Z,25.74
2019-05-13T15:50:21.538Z,25.13
2019-05-13T15:51:22.243Z,25.54
2019-05-13T15:52:22.626Z,25.23
2019-05-13T15:53:21.492Z,24.02
2019-05-13T15:54:22.082Z,24.32
2019-05-13T15:55:21.404Z,23.92
2019-05-13T15:56:22.362Z,23.92
2019-05-13T15:57:21.352Z,25.23
2019-05-13T15:58:37.702Z,24.73
2019-05-13T15:59:21.613Z,24.43
2019-05-13T16:00:21.944Z,24.43
2019-05-13T16:01:22.905Z,24.43
2019-05-13T16:02:22.682Z,24.43
2019-05-13T16:03:20.312Z,24.83
2019-05-13T16:04:21.389Z,24.22
2019-05-13T16:05:20.263Z,25.34
2019-05-13T16:06:20.354Z,24.32
2019-05-13T16:07:20.284Z,24.22
2019-05-13T16:08:20.360Z,24.83
2019-05-13T16:09:20.267Z,24.12
2019-05-13T16:10:20.257Z,25.03
2019-05-13T16:11:22.018Z,24.43
2019-05-13T16:12:21.336Z,24.22
2019-05-13T16:13:22.187Z,24.73
2019-05-13T16:14:21.975Z,25.23
2019-05-13T16:15:21.710Z,24.73
2019-05-13T16:16:21.772Z,24.22
2019-05-13T16:17:30.578Z,25.03
2019-05-13T16:18:22.231Z,25.43
2019-05-13T16:19:21.977Z,25.43
2019-05-13T16:20:21.385Z,25.74
2019-05-13T16:21:20.109Z,25.73
2019-05-13T16:22:22.853Z,25.22
2019-05-13T16:23:21.307Z,24.62
2019-05-13T16:24:21.475Z,25.32
2019-05-13T16:25:20.050Z,24.82
2019-05-13T16:26:27.250Z,24.01
2019-05-13T16:27:22.169Z,23.91
2019-05-13T16:28:20.044Z,24.11
2019-05-13T16:29:22.281Z,23.71
2019-05-13T16:30:21.640Z,23.39
2019-05-13T16:31:20.030Z,24.20
2019-05-13T16:32:22.518Z,24.40
2019-05-13T16:33:21.585Z,23.39
2019-05-13T16:34:22.325Z,23.90
2019-05-13T16:35:21.526Z,23.60
2019-05-13T16:36:22.090Z,23.90
2019-05-13T16:37:21.994Z,24.51
2019-05-13T16:38:21.992Z,24.10
2019-05-13T16:39:21.278Z,24.00
2019-05-13T16:40:21.729Z,23.90
2019-05-13T16:41:22.080Z,24.71
2019-05-13T16:42:22.302Z,24.10
2019-05-13T16:43:20.915Z,24.40
2019-05-13T16:44:22.278Z,24.29
2019-05-13T16:45:21.826Z,23.89
2019-05-13T16:46:21.406Z,23.99
2019-05-13T16:47:21.243Z,24.30
2019-05-13T16:48:21.625Z,23.79
2019-05-13T16:49:21.264Z,24.29
2019-05-13T16:50:22.098Z,23.49
2019-05-13T16:51:21.596Z,24.19
2019-05-13T16:52:21.889Z,23.38
2019-05-13T16:53:23.313Z,22.58
2019-05-13T16:54:21.966Z,22.68
2019-05-13T16:55:21.187Z,22.78
2019-05-13T16:56:27.830Z,22.27
2019-05-13T16:57:20.806Z,22.97
2019-05-13T16:58:24.476Z,21.96
2019-05-13T16:59:21.130Z,23.17
2019-05-13T17:00:19.672Z,23.97
2019-05-13T17:01:21.821Z,23.47
2019-05-13T17:02:19.655Z,22.67
2019-05-13T17:03:21.185Z,22.76
2019-05-13T17:04:21.495Z,22.45
2019-05-13T17:05:19.660Z,22.45
2019-05-13T17:06:21.714Z,22.76
2019-05-13T17:07:21.274Z,22.86
2019-05-13T17:08:19.619Z,22.24
2019-05-13T17:09:19.633Z,22.34
2019-05-13T17:10:19.615Z,21.54
2019-05-13T17:11:19.579Z,22.56
2019-05-13T17:12:21.304Z,22.55
2019-05-13T17:13:19.542Z,22.55
2019-05-13T17:14:21.319Z,22.85
2019-05-13T17:15:21.250Z,22.44
2019-05-13T17:16:21.295Z,22.44
2019-05-13T17:17:19.493Z,21.63
2019-05-13T17:18:21.761Z,22.33
2019-05-13T17:19:20.086Z,21.73
2019-05-13T17:20:21.521Z,21.83
2019-05-13T17:21:21.174Z,21.63
2019-05-13T17:22:19.438Z,22.53
2019-05-13T17:23:19.516Z,21.93
2019-05-13T17:24:19.466Z,21.03
2019-05-13T17:25:19.412Z,21.73
2019-05-13T17:26:19.404Z,21.83
2019-05-13T17:27:21.378Z,22.03
2019-05-13T17:28:21.846Z,22.03
2019-05-13T17:29:21.153Z,21.73
2019-05-13T17:30:21.849Z,21.43
2019-05-13T17:31:21.735Z,22.24
2019-05-13T17:32:30.180Z,22.24
2019-05-13T17:34:39.093Z,21.93
2019-05-13T17:35:47.136Z,22.03
2019-05-13T17:36:41.699Z,22.44
2019-05-13T17:37:39.127Z,22.14
2019-05-13T17:38:39.047Z,22.64
2019-05-13T17:39:41.338Z,22.04
2019-05-13T17:40:38.916Z,22.24
2019-05-13T17:41:38.918Z,21.65
2019-05-13T17:42:41.275Z,21.54
2019-05-13T17:43:41.186Z,21.94
2019-05-13T17:44:38.924Z,22.34
2019-05-13T17:45:38.873Z,22.14
2019-05-13T17:46:38.867Z,21.64
2019-05-13T17:47:41.331Z,20.34
2019-05-13T17:48:38.973Z,21.64
2019-05-13T17:49:41.715Z,21.15
2019-05-13T17:50:38.851Z,20.13
2019-05-13T17:51:38.819Z,20.64
2019-05-13T17:52:38.961Z,20.44
2019-05-13T17:53:41.155Z,21.15
2019-05-13T17:54:38.802Z,20.44
2019-05-13T17:55:38.803Z,21.15
2019-05-13T17:56:38.752Z,20.24
2019-05-13T17:57:41.245Z,20.84
2019-05-13T17:58:39.103Z,21.45
2019-05-13T17:59:38.743Z,20.84
2019-05-13T18:00:38.709Z,21.15
2019-05-13T18:01:41.079Z,21.26
2019-05-13T18:02:38.703Z,21.66
2019-05-13T18:03:41.075Z,21.15
2019-05-13T18:04:38.702Z,20.45
2019-05-13T18:05:38.653Z,21.56
2019-05-13T18:06:38.644Z,21.06
2019-05-13T18:07:38.643Z,21.66
2019-05-13T18:08:38.649Z,22.27
2019-05-13T18:09:38.615Z,21.67
2019-05-13T18:10:38.630Z,21.57
2019-05-13T18:11:38.599Z,22.38
2019-05-13T18:12:38.572Z,22.38
2019-05-13T18:13:41.404Z,22.08
2019-05-13T18:14:41.170Z,22.08
2019-05-13T18:15:38.601Z,22.08
2019-05-13T18:16:38.538Z,22.28
2019-05-13T18:17:38.549Z,21.78
2019-05-13T18:18:44.114Z,22.39
2019-05-13T18:19:41.982Z,22.19
2019-05-13T18:20:38.497Z,21.99
2019-05-13T18:21:38.485Z,22.90
2019-05-13T18:22:38.487Z,22.60
2019-05-13T18:23:38.543Z,22.20
2019-05-13T18:24:38.462Z,22.81
2019-05-13T18:25:38.445Z,22.51
2019-05-13T18:26:38.435Z,22.81
2019-05-13T18:27:38.428Z,23.33
2019-05-13T18:28:38.493Z,23.13
2019-05-13T18:29:38.403Z,23.43
2019-05-13T18:30:38.415Z,23.93
2019-05-13T18:31:38.420Z,23.44
2019-05-13T18:32:46.039Z,23.74
2019-05-13T18:33:38.408Z,24.05
2019-05-13T18:34:38.414Z,24.56
2019-05-13T18:35:38.415Z,24.35
2019-05-13T18:36:38.392Z,24.56
2019-05-13T18:37:38.362Z,24.05
2019-05-13T18:38:45.922Z,24.36
2019-05-13T18:39:38.393Z,24.56
2019-05-13T18:40:38.313Z,24.26
2019-05-13T18:41:38.308Z,24.26
2019-05-13T18:42:38.372Z,24.16
2019-05-13T18:43:38.292Z,25.07
2019-05-13T18:44:38.313Z,24.96
2019-05-13T18:45:38.352Z,24.36
2019-05-13T18:46:38.260Z,24.56
2019-05-13T18:47:45.830Z,24.88
2019-05-13T18:48:38.307Z,24.48
2019-05-13T18:49:38.229Z,24.27
2019-05-13T18:50:38.255Z,25.08
2019-05-13T18:51:38.299Z,24.38
2019-05-13T18:52:38.206Z,24.48
2019-05-13T18:53:38.179Z,24.48